Time;durP1;ratioP1;P1;durP2;ratioP2;P2;SDS_P1;SDS_P2;PMS_P1;PMS_P2;Temp;Humidity;BMP_temperature;BMP_pressure;BME280_temperature;BME280_humidity;BME280_pressure;Samples;Min_cycle;Max_cycle;Signal;HPM_P1;HPM_P2
2022/06/19 00:01:25;;;;;;;3.07;1.10;;;;;;;;;;5073658;28;20491;-72
2022/06/19 00:03:57;;;;;;;4.93;1.30;;;;;;;;;;5053777;28;20755;-73
2022/06/19 00:06:26;;;;;;;4.67;1.57;;;;;;;;;;5054675;28;21208;-72
2022/06/19 00:08:54;;;;;;;4.07;1.43;;;;;;;;;;5054107;28;20489;-73
2022/06/19 00:11:22;;;;;;;3.27;1.50;;;;;;;;;;5060239;28;20464;-73
2022/06/19 00:13:51;;;;;;;3.80;2.00;;;;;;;;;;5074572;28;20449;-73
2022/06/19 00:16:19;;;;;;;4.50;1.17;;;;;;;;;;5075219;28;20457;-73
2022/06/19 00:18:47;;;;;;;4.57;1.70;;;;;;;;;;5075434;28;20527;-72
2022/06/19 00:21:16;;;;;;;4.30;1.47;;;;;;;;;;5075265;28;20463;-73
2022/06/19 00:23:45;;;;;;;4.10;1.47;;;;;;;;;;5075510;28;20448;-73
2022/06/19 00:26:13;;;;;;;2.90;1.53;;;;;;;;;;5074798;28;20876;-72
2022/06/19 00:28:44;;;;;;;7.53;1.53;;;;;;;;;;5075187;28;20508;-73
2022/06/19 00:31:12;;;;;;;4.67;1.30;;;;;;;;;;5073271;28;20545;-73
2022/06/19 00:33:40;;;;;;;8.83;1.63;;;;;;;;;;5056311;28;21051;-73
2022/06/19 00:36:07;;;;;;;5.53;1.90;;;;;;;;;;5054957;28;20465;-73
2022/06/19 00:38:41;;;;;;;5.83;2.00;;;;;;;;;;5055099;28;20452;-72
2022/06/19 00:41:10;;;;;;;6.37;2.23;;;;;;;;;;5055034;28;20489;-73
2022/06/19 00:43:52;;;;;;;11.77;1.77;;;;;;;;;;5054571;28;20870;-72
2022/06/19 00:46:46;;;;;;;4.20;1.50;;;;;;;;;;5054970;28;20536;-72
2022/06/19 00:49:17;;;;;;;6.73;2.53;;;;;;;;;;5053097;28;20979;-73
2022/06/19 00:51:45;;;;;;;4.67;1.37;;;;;;;;;;5054279;28;20761;-73
2022/06/19 00:54:14;;;;;;;3.93;1.43;;;;;;;;;;5053804;28;20461;-72
2022/06/19 00:56:44;;;;;;;7.43;1.93;;;;;;;;;;5053461;28;20461;-73
2022/06/19 00:59:12;;;;;;;5.50;1.47;;;;;;;;;;5053916;28;20437;-72
2022/06/19 01:01:41;;;;;;;4.20;1.43;;;;;;;;;;5054980;28;20874;-72
2022/06/19 01:04:12;;;;;;;6.30;1.50;;;;;;;;;;5054343;28;20448;-73
2022/06/19 01:06:39;;;;;;;4.60;1.47;;;;;;;;;;5054312;28;20461;-73
2022/06/19 01:09:07;;;;;;;8.10;1.83;;;;;;;;;;5053934;28;20492;-73
2022/06/19 01:11:41;;;;;;;6.83;1.60;;;;;;;;;;5053594;28;20527;-73
2022/06/19 01:14:11;;;;;;;4.73;1.50;;;;;;;;;;5053256;28;20489;-72
2022/06/19 01:16:39;;;;;;;7.53;1.73;;;;;;;;;;5053556;28;20506;-72
2022/06/19 01:19:09;;;;;;;7.47;3.50;;;;;;;;;;5054809;28;20862;-73
2022/06/19 01:21:40;;;;;;;4.93;1.57;;;;;;;;;;5053907;28;20816;-72
2022/06/19 01:24:14;;;;;;;7.73;1.50;;;;;;;;;;5053641;28;20904;-72
2022/06/19 01:26:48;;;;;;;5.33;1.67;;;;;;;;;;5052841;28;20555;-72
2022/06/19 01:29:15;;;;;;;9.13;1.90;;;;;;;;;;5052172;28;20543;-72
2022/06/19 01:31:45;;;;;;;6.10;1.67;;;;;;;;;;5053170;28;20463;-73
2022/06/19 01:34:27;;;;;;;5.13;1.90;;;;;;;;;;5053477;28;20477;-72
2022/06/19 01:36:59;;;;;;;3.97;1.47;;;;;;;;;;5053555;28;20493;-72
2022/06/19 01:39:27;;;;;;;5.17;1.73;;;;;;;;;;5052222;28;20450;-73
2022/06/19 01:41:56;;;;;;;10.47;2.27;;;;;;;;;;5053029;28;20469;-73
2022/06/19 01:44:24;;;;;;;7.17;1.73;;;;;;;;;;5052624;28;20457;-73
2022/06/19 01:46:52;;;;;;;6.33;1.87;;;;;;;;;;5052794;28;20675;-71
2022/06/19 01:49:20;;;;;;;5.50;1.50;;;;;;;;;;5053176;28;20485;-73
2022/06/19 01:51:47;;;;;;;5.33;2.40;;;;;;;;;;5051057;28;20541;-72
2022/06/19 01:54:17;;;;;;;7.57;1.57;;;;;;;;;;5053714;28;21068;-72
2022/06/19 01:56:45;;;;;;;7.73;1.53;;;;;;;;;;5054005;28;20496;-73
2022/06/19 01:59:14;;;;;;;6.97;2.50;;;;;;;;;;5054931;28;20619;-73
2022/06/19 02:01:42;;;;;;;6.87;1.87;;;;;;;;;;5052436;28;20461;-73
2022/06/19 02:04:09;;;;;;;9.93;2.37;;;;;;;;;;5052809;28;20453;-73
2022/06/19 02:06:42;;;;;;;5.10;1.33;;;;;;;;;;5052501;28;20454;-73
2022/06/19 02:09:10;;;;;;;5.33;1.50;;;;;;;;;;5056355;28;20480;-73
2022/06/19 02:11:38;;;;;;;7.60;1.60;;;;;;;;;;5056354;28;20501;-71
2022/06/19 02:14:08;;;;;;;5.63;1.80;;;;;;;;;;5056994;28;21225;-72
2022/06/19 02:16:40;;;;;;;6.03;1.90;;;;;;;;;;5057096;28;20461;-72
2022/06/19 02:19:08;;;;;;;6.67;1.73;;;;;;;;;;5055235;28;20465;-72
2022/06/19 02:21:37;;;;;;;9.00;1.87;;;;;;;;;;5057067;28;20492;-72
2022/06/19 02:24:05;;;;;;;10.57;2.03;;;;;;;;;;5057332;28;20527;-73
2022/06/19 02:26:34;;;;;;;5.90;2.00;;;;;;;;;;5058195;28;20507;-72
2022/06/19 02:29:01;;;;;;;9.20;1.90;;;;;;;;;;5057802;28;20488;-72
2022/06/19 02:31:29;;;;;;;14.20;3.43;;;;;;;;;;5056865;28;20453;-72
2022/06/19 02:34:02;;;;;;;6.70;1.77;;;;;;;;;;5058007;28;20502;-72
2022/06/19 02:36:34;;;;;;;8.83;2.60;;;;;;;;;;5057378;28;20445;-72
2022/06/19 02:39:06;;;;;;;7.77;2.03;;;;;;;;;;5058133;28;20457;-73
2022/06/19 02:41:38;;;;;;;13.60;2.50;;;;;;;;;;5056448;28;20950;-72
2022/06/19 02:44:06;;;;;;;4.40;2.13;;;;;;;;;;5057244;28;20449;-73
2022/06/19 02:46:34;;;;;;;10.70;2.17;;;;;;;;;;5055921;28;20629;-72
2022/06/19 02:49:03;;;;;;;5.40;1.60;;;;;;;;;;5056094;28;20515;-72
2022/06/19 02:51:31;;;;;;;10.13;1.97;;;;;;;;;;5056197;28;20453;-72
2022/06/19 02:53:59;;;;;;;7.87;1.77;;;;;;;;;;5055221;28;20605;-73
2022/06/19 02:56:26;;;;;;;7.87;2.40;;;;;;;;;;5055260;28;20457;-72
2022/06/19 02:58:57;;;;;;;6.17;2.57;;;;;;;;;;5055814;28;20858;-72
2022/06/19 03:01:25;;;;;;;12.23;3.03;;;;;;;;;;5055687;28;20445;-72
2022/06/19 03:04:16;;;;;;;10.30;2.60;;;;;;;;;;5057134;28;20471;-73
2022/06/19 03:06:44;;;;;;;5.03;1.60;;;;;;;;;;5056317;28;20775;-72
2022/06/19 03:09:27;;;;;;;12.37;1.77;;;;;;;;;;5054751;28;20485;-72
2022/06/19 03:11:54;;;;;;;8.10;1.90;;;;;;;;;;5055546;28;20559;-73
2022/06/19 03:14:23;;;;;;;13.17;2.90;;;;;;;;;;5055190;28;20507;-73
2022/06/19 03:16:51;;;;;;;12.83;2.40;;;;;;;;;;5055558;28;20549;-73
2022/06/19 03:19:20;;;;;;;8.93;2.10;;;;;;;;;;5053829;28;20532;-72
2022/06/19 03:21:49;;;;;;;7.93;1.90;;;;;;;;;;5053635;28;20453;-72
2022/06/19 03:24:16;;;;;;;7.27;1.60;;;;;;;;;;5055612;28;20600;-72
2022/06/19 03:26:44;;;;;;;10.47;3.50;;;;;;;;;;5054190;28;20564;-71
2022/06/19 03:29:12;;;;;;;9.83;2.17;;;;;;;;;;5055739;28;20481;-72
2022/06/19 03:31:40;;;;;;;7.67;2.80;;;;;;;;;;5055531;28;20474;-73
2022/06/19 03:34:10;;;;;;;8.93;2.20;;;;;;;;;;5056284;28;20568;-72
2022/06/19 03:36:39;;;;;;;10.00;2.43;;;;;;;;;;5055493;28;20453;-72
2022/06/19 03:42:00;;;;;;;13.27;2.70;;;;;;;;;;5044698;28;20461;-72
2022/06/19 03:44:28;;;;;;;7.90;2.10;;;;;;;;;;5076028;28;20540;-72
2022/06/19 03:46:56;;;;;;;9.00;1.90;;;;;;;;;;5075121;28;20459;-72
2022/06/19 03:49:24;;;;;;;10.73;2.77;;;;;;;;;;5075119;28;20583;-73
2022/06/19 03:52:18;;;;;;;8.00;2.30;;;;;;;;;;5076572;28;20468;-72
2022/06/19 03:54:48;;;;;;;12.73;2.30;;;;;;;;;;5069374;28;20468;-73
2022/06/19 03:57:16;;;;;;;11.53;3.40;;;;;;;;;;5074385;28;20535;-74
2022/06/19 03:59:44;;;;;;;7.07;2.17;;;;;;;;;;5075684;28;20468;-73
2022/06/19 04:02:12;;;;;;;8.50;2.23;;;;;;;;;;5074483;28;20525;-73
2022/06/19 04:04:41;;;;;;;10.60;2.47;;;;;;;;;;5076607;28;20465;-73
2022/06/19 04:07:08;;;;;;;10.27;2.37;;;;;;;;;;5074779;28;20895;-73
2022/06/19 04:09:36;;;;;;;13.80;2.93;;;;;;;;;;5075179;28;20762;-73
2022/06/19 04:12:07;;;;;;;11.73;2.33;;;;;;;;;;5074682;28;20452;-72
2022/06/19 04:14:35;;;;;;;12.97;3.17;;;;;;;;;;5074890;28;20876;-73
2022/06/19 04:17:03;;;;;;;7.50;2.07;;;;;;;;;;5073873;28;20555;-73
2022/06/19 04:19:31;;;;;;;9.13;2.60;;;;;;;;;;5075083;28;20581;-73
2022/06/19 04:21:59;;;;;;;10.23;2.30;;;;;;;;;;5074646;28;20570;-72
2022/06/19 04:24:27;;;;;;;9.40;2.60;;;;;;;;;;5076498;28;20476;-73
2022/06/19 04:26:55;;;;;;;11.13;2.70;;;;;;;;;;5075943;28;20452;-73
2022/06/19 04:29:24;;;;;;;12.50;4.40;;;;;;;;;;5075340;28;20488;-73
2022/06/19 04:31:55;;;;;;;15.13;2.73;;;;;;;;;;5074191;28;20528;-72
2022/06/19 04:34:23;;;;;;;11.70;2.47;;;;;;;;;;5073996;28;20472;-73
2022/06/19 04:36:51;;;;;;;8.73;1.90;;;;;;;;;;5074891;28;20471;-73
2022/06/19 04:39:19;;;;;;;10.93;3.47;;;;;;;;;;5074281;28;20936;-72
2022/06/19 04:41:47;;;;;;;7.57;3.03;;;;;;;;;;5074567;28;20533;-74
2022/06/19 04:44:16;;;;;;;9.73;2.90;;;;;;;;;;5074205;28;20474;-72
2022/06/19 04:46:46;;;;;;;10.33;2.37;;;;;;;;;;5074154;28;20543;-72
2022/06/19 04:49:14;;;;;;;8.90;2.40;;;;;;;;;;5074740;28;20464;-73
2022/06/19 04:51:43;;;;;;;8.20;2.53;;;;;;;;;;5073728;28;20463;-73
2022/06/19 04:54:11;;;;;;;13.73;3.57;;;;;;;;;;5074777;28;20570;-72
2022/06/19 04:56:39;;;;;;;10.03;2.40;;;;;;;;;;5073340;28;21029;-73
2022/06/19 04:59:07;;;;;;;14.13;2.70;;;;;;;;;;5073467;28;20472;-73
2022/06/19 05:01:36;;;;;;;11.20;3.27;;;;;;;;;;5073794;28;20449;-71
2022/06/19 05:04:07;;;;;;;17.50;2.93;;;;;;;;;;5074181;28;20470;-73
2022/06/19 05:06:35;;;;;;;9.70;2.93;;;;;;;;;;5073947;28;20452;-73
2022/06/19 05:09:03;;;;;;;11.07;3.47;;;;;;;;;;5069492;28;20460;-73
2022/06/19 05:11:37;;;;;;;12.63;2.67;;;;;;;;;;5056724;28;20485;-71
2022/06/19 05:14:05;;;;;;;11.73;3.47;;;;;;;;;;5053088;28;20487;-73
2022/06/19 05:16:33;;;;;;;13.00;2.20;;;;;;;;;;5054528;28;20627;-72
2022/06/19 05:19:03;;;;;;;11.10;2.03;;;;;;;;;;5054469;28;20445;-72
2022/06/19 05:21:32;;;;;;;7.43;2.70;;;;;;;;;;5065387;28;20465;-72
2022/06/19 05:24:00;;;;;;;13.13;3.27;;;;;;;;;;5054803;28;20457;-72
2022/06/19 05:26:35;;;;;;;9.40;2.80;;;;;;;;;;5067075;28;20956;-73
2022/06/19 05:29:04;;;;;;;8.83;2.23;;;;;;;;;;5075119;28;20455;-72
2022/06/19 05:31:34;;;;;;;8.83;2.40;;;;;;;;;;5068890;28;20492;-73
2022/06/19 05:34:02;;;;;;;3.67;1.57;;;;;;;;;;5065524;28;20458;-73
2022/06/19 05:36:30;;;;;;;10.43;2.37;;;;;;;;;;5071075;28;20735;-71
2022/06/19 05:38:59;;;;;;;7.00;2.33;;;;;;;;;;5071106;28;20472;-73
2022/06/19 05:41:34;;;;;;;10.17;2.13;;;;;;;;;;5054715;28;20888;-71
2022/06/19 05:44:02;;;;;;;21.07;4.10;;;;;;;;;;5058545;28;20460;-72
2022/06/19 05:46:30;;;;;;;8.90;2.07;;;;;;;;;;5058389;28;20467;-72
2022/06/19 05:48:58;;;;;;;9.73;2.90;;;;;;;;;;5057893;28;20522;-73
2022/06/19 05:51:27;;;;;;;13.67;2.57;;;;;;;;;;5058598;28;20491;-72
2022/06/19 05:53:57;;;;;;;13.73;3.67;;;;;;;;;;5057350;28;20458;-73
2022/06/19 05:56:27;;;;;;;8.20;2.10;;;;;;;;;;5062486;28;20861;-72
2022/06/19 05:58:54;;;;;;;11.63;2.10;;;;;;;;;;5057474;28;20457;-72
2022/06/19 06:01:23;;;;;;;12.73;2.50;;;;;;;;;;5063635;28;20472;-72
2022/06/19 06:03:51;;;;;;;8.30;2.30;;;;;;;;;;5057900;28;20719;-72
2022/06/19 06:06:20;;;;;;;10.10;2.40;;;;;;;;;;5064857;28;20718;-72
2022/06/19 06:08:48;;;;;;;5.50;1.80;;;;;;;;;;5057762;28;20858;-72
2022/06/19 06:11:16;;;;;;;10.37;2.40;;;;;;;;;;5057642;28;20905;-72
2022/06/19 06:13:46;;;;;;;10.33;2.30;;;;;;;;;;5062239;28;20491;-72
2022/06/19 06:16:14;;;;;;;9.20;2.03;;;;;;;;;;5059616;28;20861;-72
2022/06/19 06:18:43;;;;;;;12.17;2.20;;;;;;;;;;5058324;28;20523;-73
2022/06/19 06:21:15;;;;;;;9.13;2.60;;;;;;;;;;5070216;28;20476;-73
2022/06/19 06:23:43;;;;;;;13.70;2.43;;;;;;;;;;5065815;28;20457;-72
2022/06/19 06:26:12;;;;;;;6.27;2.40;;;;;;;;;;5058267;28;20933;-72
2022/06/19 06:28:41;;;;;;;12.37;2.67;;;;;;;;;;5062652;28;20924;-73
2022/06/19 06:31:10;;;;;;;9.40;2.50;;;;;;;;;;5059832;28;20575;-73
2022/06/19 06:33:38;;;;;;;9.00;2.90;;;;;;;;;;5057763;28;20457;-73
2022/06/19 06:36:06;;;;;;;7.70;1.90;;;;;;;;;;5057439;28;20453;-73
2022/06/19 06:38:35;;;;;;;8.47;2.07;;;;;;;;;;5065165;28;20515;-73
2022/06/19 06:41:03;;;;;;;7.53;2.60;;;;;;;;;;5065556;28;20461;-70
2022/06/19 06:43:31;;;;;;;10.73;2.90;;;;;;;;;;5057564;28;20784;-72
2022/06/19 06:46:05;;;;;;;7.10;2.43;;;;;;;;;;5064138;28;20532;-72
2022/06/19 06:48:34;;;;;;;13.27;3.77;;;;;;;;;;5056527;28;20465;-72
2022/06/19 06:51:06;;;;;;;10.40;3.37;;;;;;;;;;5056835;28;21161;-72
2022/06/19 06:53:37;;;;;;;10.70;3.33;;;;;;;;;;5056414;28;20463;-73
2022/06/19 06:56:05;;;;;;;5.67;1.80;;;;;;;;;;5057128;28;20808;-72
2022/06/19 06:58:33;;;;;;;11.40;2.70;;;;;;;;;;5072493;28;20472;-73
2022/06/19 07:01:08;;;;;;;9.70;2.60;;;;;;;;;;5070308;28;20540;-73
2022/06/19 07:03:38;;;;;;;13.67;2.50;;;;;;;;;;5065293;28;20460;-73
2022/06/19 07:06:06;;;;;;;7.40;1.63;;;;;;;;;;5056193;28;20457;-72
2022/06/19 07:08:37;;;;;;;12.07;2.90;;;;;;;;;;5055466;28;20466;-72
2022/06/19 07:11:05;;;;;;;8.93;2.17;;;;;;;;;;5057104;28;20761;-72
2022/06/19 07:13:36;;;;;;;12.00;2.73;;;;;;;;;;5058480;28;21034;-74
2022/06/19 07:16:04;;;;;;;12.20;3.03;;;;;;;;;;5056672;28;20553;-72
2022/06/19 07:18:34;;;;;;;8.93;2.47;;;;;;;;;;5055418;28;20694;-72
2022/06/19 07:21:10;;;;;;;7.30;1.90;;;;;;;;;;5054399;28;20468;-73
2022/06/19 07:23:38;;;;;;;7.30;1.97;;;;;;;;;;5053243;28;20472;-73
2022/06/19 07:26:09;;;;;;;7.23;2.20;;;;;;;;;;5054488;28;20457;-73
2022/06/19 07:28:37;;;;;;;8.13;2.00;;;;;;;;;;5054688;28;20574;-72
2022/06/19 07:31:06;;;;;;;8.87;2.17;;;;;;;;;;5056387;28;20491;-73
2022/06/19 07:33:37;;;;;;;6.27;2.00;;;;;;;;;;5069013;28;20854;-74
2022/06/19 07:36:10;;;;;;;16.43;3.53;;;;;;;;;;5076013;28;20757;-72
2022/06/19 07:38:41;;;;;;;9.33;2.70;;;;;;;;;;5062396;28;20446;-71
2022/06/19 07:41:11;;;;;;;11.93;2.50;;;;;;;;;;5054003;28;20564;-73
2022/06/19 07:43:38;;;;;;;7.73;2.00;;;;;;;;;;5055498;28;20454;-72
2022/06/19 07:46:07;;;;;;;8.57;2.27;;;;;;;;;;5055848;28;21102;-73
2022/06/19 07:51:22;;;;;;;5.93;1.50;;;;;;;;;;5053538;28;20481;-72
2022/06/19 07:53:50;;;;;;;8.50;1.97;;;;;;;;;;5062597;28;20560;-72
2022/06/19 07:56:18;;;;;;;5.73;1.77;;;;;;;;;;5062202;28;20540;-72
2022/06/19 07:58:46;;;;;;;6.80;3.37;;;;;;;;;;5067776;28;20523;-72
2022/06/19 08:01:15;;;;;;;6.57;2.30;;;;;;;;;;5063720;28;20482;-73
2022/06/19 08:03:43;;;;;;;7.57;1.90;;;;;;;;;;5062969;28;20453;-73
2022/06/19 08:06:13;;;;;;;3.43;1.67;;;;;;;;;;5061370;28;20492;-73
2022/06/19 08:08:43;;;;;;;7.70;2.27;;;;;;;;;;5061083;28;20472;-72
2022/06/19 08:11:11;;;;;;;11.87;2.10;;;;;;;;;;5060694;28;20924;-73
2022/06/19 08:13:39;;;;;;;11.27;2.47;;;;;;;;;;5061750;28;20551;-73
2022/06/19 08:16:13;;;;;;;7.23;3.20;;;;;;;;;;5063218;28;21018;-73
2022/06/19 08:18:41;;;;;;;12.23;2.70;;;;;;;;;;5061234;28;20555;-73
2022/06/19 08:21:10;;;;;;;8.03;2.40;;;;;;;;;;5059639;28;20636;-73
2022/06/19 08:23:38;;;;;;;12.13;3.30;;;;;;;;;;5062330;28;20456;-73
2022/06/19 08:26:10;;;;;;;5.90;2.13;;;;;;;;;;5060888;28;20461;-73
2022/06/19 08:28:42;;;;;;;11.30;2.30;;;;;;;;;;5060591;28;20457;-73
2022/06/19 08:31:10;;;;;;;4.13;2.63;;;;;;;;;;5060988;28;20488;-73
2022/06/19 08:33:38;;;;;;;7.17;2.57;;;;;;;;;;5062023;28;20445;-73
2022/06/19 08:36:07;;;;;;;9.07;3.23;;;;;;;;;;5061209;28;20575;-73
2022/06/19 08:38:37;;;;;;;7.20;3.43;;;;;;;;;;5061245;28;20543;-74
2022/06/19 08:41:26;;;;;;;8.80;2.60;;;;;;;;;;5060334;28;20901;-73
2022/06/19 08:44:04;;;;;;;8.60;2.50;;;;;;;;;;5061032;28;20524;-73
2022/06/19 08:46:39;;;;;;;7.63;2.67;;;;;;;;;;5051781;28;20475;-74
2022/06/19 08:49:16;;;;;;;7.23;2.63;;;;;;;;;;5057769;28;20757;-72
2022/06/19 08:51:52;;;;;;;8.10;3.00;;;;;;;;;;5059320;28;20512;-72
2022/06/19 08:54:33;;;;;;;5.80;2.37;;;;;;;;;;5059564;28;20460;-73
2022/06/19 08:57:07;;;;;;;10.23;2.90;;;;;;;;;;5059088;28;20901;-73
2022/06/19 08:59:45;;;;;;;8.60;3.40;;;;;;;;;;5060229;28;20548;-73
2022/06/19 09:02:19;;;;;;;8.83;3.00;;;;;;;;;;5052173;28;20797;-73
2022/06/19 09:07:43;;;;;;;11.23;3.50;;;;;;;;;;5052942;28;20630;-73
2022/06/19 09:10:20;;;;;;;7.37;2.40;;;;;;;;;;5052230;28;20677;-73
2022/06/19 09:13:16;;;;;;;9.23;3.20;;;;;;;;;;5052295;28;20453;-73
2022/06/19 09:15:49;;;;;;;7.10;2.53;;;;;;;;;;5032563;28;20461;-72
2022/06/19 09:18:24;;;;;;;9.10;2.70;;;;;;;;;;5031629;28;20469;-73
2022/06/19 09:20:56;;;;;;;11.10;3.00;;;;;;;;;;5030017;28;20484;-73
2022/06/19 09:23:48;;;;;;;7.63;2.53;;;;;;;;;;5029451;28;20493;-73
2022/06/19 09:26:20;;;;;;;7.00;2.63;;;;;;;;;;4940503;28;20455;-73
2022/06/19 09:28:51;;;;;;;8.57;2.30;;;;;;;;;;5031549;28;20469;-73
2022/06/19 09:31:34;;;;;;;10.23;2.27;;;;;;;;;;5038603;28;20564;-73
2022/06/19 09:34:08;;;;;;;6.30;2.63;;;;;;;;;;5036757;28;20485;-73
2022/06/19 09:36:39;;;;;;;8.43;2.87;;;;;;;;;;5040308;28;20455;-74
2022/06/19 09:39:10;;;;;;;6.87;2.30;;;;;;;;;;5032826;28;20474;-73
2022/06/19 09:41:39;;;;;;;5.87;2.73;;;;;;;;;;5041401;28;20474;-74
2022/06/19 09:44:14;;;;;;;5.40;2.17;;;;;;;;;;5034550;28;20470;-73
2022/06/19 09:46:46;;;;;;;9.40;2.63;;;;;;;;;;5048604;28;20567;-74
2022/06/19 09:49:19;;;;;;;9.30;2.40;;;;;;;;;;5041171;28;20462;-72
2022/06/19 09:51:51;;;;;;;11.37;2.80;;;;;;;;;;5033170;28;20519;-74
2022/06/19 09:54:22;;;;;;;11.07;3.33;;;;;;;;;;5034036;28;20520;-73
2022/06/19 09:57:00;;;;;;;6.30;2.50;;;;;;;;;;5033071;28;20454;-73
2022/06/19 09:59:40;;;;;;;8.07;2.77;;;;;;;;;;5032223;28;20735;-73
2022/06/19 10:02:15;;;;;;;8.63;2.50;;;;;;;;;;5041310;28;20450;-73
2022/06/19 10:04:46;;;;;;;6.47;2.97;;;;;;;;;;5047993;28;20465;-73
2022/06/19 10:07:20;;;;;;;7.10;3.23;;;;;;;;;;5031251;28;20469;-72
2022/06/19 10:09:52;;;;;;;13.33;2.77;;;;;;;;;;5034096;28;20577;-73
2022/06/19 10:12:27;;;;;;;9.10;3.07;;;;;;;;;;5031539;28;20497;-73
2022/06/19 10:15:00;;;;;;;4.50;2.33;;;;;;;;;;5051385;28;20480;-74
2022/06/19 10:17:35;;;;;;;7.53;1.87;;;;;;;;;;5051070;28;20461;-73
2022/06/19 10:20:05;;;;;;;6.67;3.10;;;;;;;;;;5052373;28;20444;-73
2022/06/19 10:22:42;;;;;;;8.50;3.13;;;;;;;;;;5051460;28;20449;-73
2022/06/19 10:25:24;;;;;;;10.00;2.83;;;;;;;;;;5050289;28;20784;-74
2022/06/19 10:27:57;;;;;;;7.90;2.83;;;;;;;;;;5051326;28;20461;-73
2022/06/19 10:30:29;;;;;;;10.63;2.60;;;;;;;;;;5055653;28;20773;-73
2022/06/19 10:33:14;;;;;;;5.83;2.83;;;;;;;;;;5052317;28;20619;-73
2022/06/19 10:35:44;;;;;;;7.07;2.80;;;;;;;;;;5053779;28;20601;-74
2022/06/19 10:38:27;;;;;;;5.37;2.70;;;;;;;;;;5055695;28;20471;-74
2022/06/19 10:40:58;;;;;;;7.53;2.80;;;;;;;;;;5056945;28;20445;-72
2022/06/19 10:43:39;;;;;;;6.33;2.97;;;;;;;;;;5055855;28;20534;-74
2022/06/19 10:46:09;;;;;;;8.60;2.60;;;;;;;;;;5035172;28;20469;-74
2022/06/19 10:48:42;;;;;;;5.80;2.03;;;;;;;;;;5036183;28;20749;-74
2022/06/19 10:51:19;;;;;;;6.77;2.20;;;;;;;;;;5052457;28;20773;-72
2022/06/19 10:54:11;;;;;;;6.87;2.67;;;;;;;;;;5044775;28;20714;-74
2022/06/19 10:56:45;;;;;;;3.70;1.80;;;;;;;;;;5051900;28;20737;-74
2022/06/19 10:59:23;;;;;;;3.77;2.00;;;;;;;;;;5055105;28;20468;-74
2022/06/19 11:04:48;;;;;;;5.43;2.67;;;;;;;;;;5041616;28;20457;-73
2022/06/19 11:07:18;;;;;;;7.23;3.27;;;;;;;;;;5047995;28;21992;-73
2022/06/19 11:09:48;;;;;;;6.60;2.00;;;;;;;;;;5045956;28;20466;-73
2022/06/19 11:12:19;;;;;;;6.13;2.57;;;;;;;;;;5038276;28;20568;-74
2022/06/19 11:14:49;;;;;;;5.23;1.90;;;;;;;;;;5040427;28;20477;-74
2022/06/19 11:17:18;;;;;;;7.73;2.07;;;;;;;;;;5048796;28;20500;-74
2022/06/19 11:19:49;;;;;;;5.23;1.87;;;;;;;;;;5052644;28;20457;-74
2022/06/19 11:22:30;;;;;;;12.00;2.20;;;;;;;;;;5048989;28;20468;-74
2022/06/19 11:25:16;;;;;;;4.57;2.00;;;;;;;;;;5042437;28;20480;-74
2022/06/19 11:27:50;;;;;;;6.57;1.83;;;;;;;;;;5050967;28;20462;-72
2022/06/19 11:30:27;;;;;;;6.87;2.17;;;;;;;;;;5054140;28;20543;-74
2022/06/19 11:32:57;;;;;;;5.90;1.40;;;;;;;;;;5055131;28;20491;-75
2022/06/19 11:35:27;;;;;;;3.83;1.80;;;;;;;;;;5054237;28;20470;-74
2022/06/19 11:37:57;;;;;;;4.90;1.50;;;;;;;;;;5054454;28;20548;-74
2022/06/19 11:40:30;;;;;;;3.63;1.27;;;;;;;;;;5053464;28;20481;-75
2022/06/19 11:42:59;;;;;;;5.77;1.53;;;;;;;;;;5052836;28;20559;-75
2022/06/19 11:45:28;;;;;;;2.80;1.10;;;;;;;;;;5053027;28;20489;-75
2022/06/19 11:48:06;;;;;;;4.70;1.40;;;;;;;;;;5051819;28;20485;-75
2022/06/19 11:50:43;;;;;;;4.33;1.97;;;;;;;;;;5034468;28;20690;-74
2022/06/19 11:53:23;;;;;;;7.03;2.00;;;;;;;;;;5035931;28;20485;-75
2022/06/19 11:55:52;;;;;;;11.33;3.20;;;;;;;;;;5054333;28;20457;-74
2022/06/19 11:58:30;;;;;;;5.37;2.00;;;;;;;;;;5054306;28;20472;-75
2022/06/19 12:01:01;;;;;;;6.40;2.63;;;;;;;;;;5053424;28;20469;-74
2022/06/19 12:03:32;;;;;;;5.00;1.57;;;;;;;;;;5036783;28;20465;-74
2022/06/19 12:06:09;;;;;;;5.93;1.70;;;;;;;;;;5034184;28;20465;-74
2022/06/19 12:08:41;;;;;;;5.30;1.53;;;;;;;;;;5033196;28;20539;-73
2022/06/19 12:11:09;;;;;;;5.03;2.10;;;;;;;;;;5033686;28;20513;-75
2022/06/19 12:13:38;;;;;;;3.67;1.50;;;;;;;;;;5033602;28;20490;-75
2022/06/19 12:16:12;;;;;;;5.17;1.90;;;;;;;;;;5034387;28;20488;-75
2022/06/19 12:18:52;;;;;;;7.93;1.73;;;;;;;;;;5033635;28;20454;-74
2022/06/19 12:21:26;;;;;;;4.80;1.43;;;;;;;;;;5034642;28;20847;-74
2022/06/19 12:24:00;;;;;;;10.00;2.60;;;;;;;;;;5034150;28;20454;-74
2022/06/19 12:26:34;;;;;;;5.43;1.77;;;;;;;;;;5031374;28;20472;-73
2022/06/19 12:29:08;;;;;;;7.83;2.03;;;;;;;;;;5033547;28;20778;-74
2022/06/19 12:31:50;;;;;;;5.47;1.70;;;;;;;;;;5032948;28;20561;-74
2022/06/19 12:34:26;;;;;;;6.60;1.90;;;;;;;;;;5032680;28;20473;-75
2022/06/19 12:36:56;;;;;;;7.77;2.00;;;;;;;;;;5056673;28;20470;-74
2022/06/19 12:39:26;;;;;;;7.67;1.97;;;;;;;;;;5032345;28;20466;-74
2022/06/19 12:41:58;;;;;;;6.40;2.73;;;;;;;;;;5032058;28;20458;-74
2022/06/19 12:44:59;;;;;;;7.70;4.00;;;;;;;;;;5033666;28;20738;-74
2022/06/19 12:47:38;;;;;;;4.07;1.50;;;;;;;;;;5032533;28;20477;-74
2022/06/19 12:50:18;;;;;;;4.40;1.60;;;;;;;;;;5032607;28;20523;-74
2022/06/19 12:52:54;;;;;;;12.13;2.60;;;;;;;;;;5034537;28;20512;-73
2022/06/19 12:55:45;;;;;;;5.83;2.00;;;;;;;;;;5033873;28;20536;-74
2022/06/19 12:58:26;;;;;;;13.20;2.37;;;;;;;;;;5032601;28;20859;-73
2022/06/19 13:00:55;;;;;;;4.10;1.60;;;;;;;;;;5034318;28;20907;-74
2022/06/19 13:03:47;;;;;;;4.00;1.83;;;;;;;;;;5032522;28;20462;-74
2022/06/19 13:06:28;;;;;;;8.83;3.30;;;;;;;;;;5018788;28;20802;-73
2022/06/19 13:09:01;;;;;;;8.23;2.37;;;;;;;;;;5033776;28;20541;-74
2022/06/19 13:11:34;;;;;;;5.80;2.07;;;;;;;;;;5033830;28;20450;-74
2022/06/19 13:14:16;;;;;;;6.77;2.40;;;;;;;;;;5033635;28;20520;-74
2022/06/19 13:16:48;;;;;;;7.90;2.27;;;;;;;;;;5032442;28;20840;-74
2022/06/19 13:19:27;;;;;;;6.47;2.00;;;;;;;;;;5033722;28;20454;-74
2022/06/19 13:21:57;;;;;;;8.00;2.40;;;;;;;;;;5034022;28;21097;-74
2022/06/19 13:24:32;;;;;;;8.10;3.00;;;;;;;;;;5034371;28;20596;-74
2022/06/19 13:27:15;;;;;;;5.40;2.00;;;;;;;;;;5043259;28;20818;-74
2022/06/19 13:29:49;;;;;;;6.33;2.10;;;;;;;;;;5052534;28;21017;-74
2022/06/19 13:32:21;;;;;;;9.70;2.20;;;;;;;;;;5052899;28;20583;-76
2022/06/19 13:34:58;;;;;;;7.00;2.10;;;;;;;;;;5053563;28;20935;-74
2022/06/19 13:37:38;;;;;;;7.23;2.00;;;;;;;;;;5053708;28;20518;-74
2022/06/19 13:40:14;;;;;;;6.20;1.90;;;;;;;;;;5052065;28;20543;-73
2022/06/19 13:42:58;;;;;;;8.63;2.50;;;;;;;;;;5050649;28;20461;-73
2022/06/19 13:45:47;;;;;;;7.10;4.47;;;;;;;;;;5050517;28;20473;-74
2022/06/19 13:48:17;;;;;;;6.70;2.03;;;;;;;;;;5049637;28;20469;-74
2022/06/19 13:50:48;;;;;;;12.13;2.43;;;;;;;;;;5036514;28;20480;-74
2022/06/19 13:53:21;;;;;;;6.70;2.27;;;;;;;;;;5053132;28;20477;-74
2022/06/19 13:55:59;;;;;;;5.60;1.87;;;;;;;;;;5053518;28;20489;-74
2022/06/19 13:58:36;;;;;;;11.23;3.10;;;;;;;;;;5049548;28;20465;-75
2022/06/19 14:01:08;;;;;;;14.60;3.70;;;;;;;;;;5051289;28;20578;-74
2022/06/19 14:06:41;;;;;;;11.00;3.13;;;;;;;;;;5036750;28;20530;-75
2022/06/19 14:09:16;;;;;;;10.33;3.27;;;;;;;;;;5037559;28;20529;-75
2022/06/19 14:12:10;;;;;;;8.77;2.20;;;;;;;;;;5034316;28;20454;-77
2022/06/19 14:14:43;;;;;;;11.83;3.37;;;;;;;;;;5036522;28;20493;-74
2022/06/19 14:17:16;;;;;;;14.10;2.77;;;;;;;;;;5036931;28;20466;-75
2022/06/19 14:19:47;;;;;;;14.40;3.80;;;;;;;;;;5037963;28;20458;-74
2022/06/19 14:22:21;;;;;;;10.83;3.30;;;;;;;;;;5035437;28;20450;-74
2022/06/19 14:24:57;;;;;;;9.03;2.60;;;;;;;;;;5036281;28;20489;-75
2022/06/19 14:27:37;;;;;;;6.90;2.90;;;;;;;;;;5036589;28;20541;-74
2022/06/19 14:30:12;;;;;;;7.57;2.60;;;;;;;;;;5038369;28;20486;-75
2022/06/19 14:32:50;;;;;;;8.60;2.50;;;;;;;;;;5037639;28;20572;-73
2022/06/19 14:35:28;;;;;;;5.40;2.00;;;;;;;;;;5037074;28;20494;-73
2022/06/19 14:37:58;;;;;;;7.57;2.63;;;;;;;;;;5035989;28;20552;-73
2022/06/19 14:41:00;;;;;;;9.53;2.03;;;;;;;;;;5036040;28;20560;-74
2022/06/19 14:43:34;;;;;;;7.60;2.30;;;;;;;;;;5042400;28;20911;-73
2022/06/19 14:46:15;;;;;;;9.70;2.70;;;;;;;;;;5056784;28;20547;-74
2022/06/19 14:48:46;;;;;;;9.80;3.60;;;;;;;;;;5053617;28;20475;-74
2022/06/19 14:51:22;;;;;;;8.17;2.33;;;;;;;;;;5049011;28;20457;-73
2022/06/19 14:54:15;;;;;;;12.77;3.07;;;;;;;;;;5056284;28;20495;-74
2022/06/19 14:56:59;;;;;;;9.20;3.10;;;;;;;;;;5049610;28;20603;-73
2022/06/19 14:59:31;;;;;;;14.13;2.57;;;;;;;;;;5057271;28;20461;-73
2022/06/19 15:01:59;;;;;;;8.53;2.80;;;;;;;;;;5057150;28;21145;-73
2022/06/19 15:04:30;;;;;;;7.93;2.37;;;;;;;;;;5046594;28;20466;-73
2022/06/19 15:07:03;;;;;;;8.30;3.20;;;;;;;;;;5052100;28;20460;-73
2022/06/19 15:09:36;;;;;;;8.60;3.00;;;;;;;;;;5053011;28;20497;-74
2022/06/19 15:12:11;;;;;;;10.10;2.93;;;;;;;;;;5057055;28;20441;-73
2022/06/19 15:14:46;;;;;;;7.20;2.70;;;;;;;;;;5053300;28;20457;-73
2022/06/19 15:17:31;;;;;;;8.87;2.27;;;;;;;;;;5053600;28;20457;-73
2022/06/19 15:20:24;;;;;;;7.73;2.30;;;;;;;;;;5037202;28;20737;-75
2022/06/19 15:23:09;;;;;;;9.80;2.30;;;;;;;;;;5029333;28;20465;-73
2022/06/19 15:25:37;;;;;;;8.40;2.93;;;;;;;;;;5035035;28;20462;-73